Time;durP1;ratioP1;P1;durP2;ratioP2;P2;SDS_P1;SDS_P2;PMS_P1;PMS_P2;Temp;Humidity;BMP_temperature;BMP_pressure;BME280_temperature;BME280_humidity;BME280_pressure;Samples;Min_cycle;Max_cycle;Signal;HPM_P1;HPM_P2
2023/10/28 00:02:14;;;;;;;2.60;2.30;;;;;;;8.92;100.00;99412.69;4996641;28;20062;-89
2023/10/28 00:04:39;;;;;;;7.40;2.55;;;;;;;8.91;100.00;99414.47;4995981;28;20073;-90
2023/10/28 00:07:05;;;;;;;3.93;2.50;;;;;;;8.89;100.00;99402.47;4995749;28;20022;-90
2023/10/28 00:09:30;;;;;;;3.53;2.50;;;;;;;8.94;100.00;99410.91;4996381;28;20110;-89
2023/10/28 00:11:55;;;;;;;4.97;3.00;;;;;;;8.99;100.00;99416.81;4996049;28;20033;-89
2023/10/28 00:14:21;;;;;;;3.40;2.43;;;;;;;8.99;100.00;99408.19;4995789;28;20026;-89
2023/10/28 00:16:49;;;;;;;5.25;2.50;;;;;;;8.97;100.00;99413.41;4995880;28;20097;-89
2023/10/28 00:19:15;;;;;;;4.28;2.40;;;;;;;9.02;100.00;99421.88;4995770;28;20033;-90
2023/10/28 00:21:41;;;;;;;4.95;2.55;;;;;;;9.03;100.00;99415.78;4995389;28;20026;-88
2023/10/28 00:24:06;;;;;;;4.87;2.57;;;;;;;9.03;100.00;99420.97;4996104;28;20034;-89
2023/10/28 00:26:31;;;;;;;4.63;2.60;;;;;;;9.00;100.00;99402.97;4995405;28;20030;-89
2023/10/28 00:28:58;;;;;;;5.00;2.70;;;;;;;9.01;100.00;99415.00;4995703;28;20037;-88
2023/10/28 00:31:23;;;;;;;4.75;2.53;;;;;;;9.02;100.00;99414.09;4995894;28;20045;-89
2023/10/28 00:33:49;;;;;;;5.10;2.90;;;;;;;9.00;100.00;99417.63;4995115;28;20132;-89
2023/10/28 00:36:15;;;;;;;4.93;2.40;;;;;;;9.02;100.00;99416.69;4996106;28;20511;-90
2023/10/28 00:38:40;;;;;;;3.20;2.47;;;;;;;9.01;100.00;99412.41;4995212;28;20368;-88
2023/10/28 00:41:06;;;;;;;4.50;2.20;;;;;;;8.94;100.00;99401.44;4995380;28;20029;-89
2023/10/28 00:43:32;;;;;;;3.53;2.37;;;;;;;9.05;100.00;99413.19;4995541;28;20076;-89
2023/10/28 00:45:59;;;;;;;5.60;2.50;;;;;;;9.02;100.00;99414.09;4995024;28;20030;-89
2023/10/28 00:48:25;;;;;;;3.95;2.30;;;;;;;9.04;100.00;99416.66;4994707;28;20026;-89
2023/10/28 00:50:50;;;;;;;4.80;2.13;;;;;;;9.07;100.00;99416.53;4995002;28;20104;-90
2023/10/28 00:53:17;;;;;;;4.37;2.20;;;;;;;9.05;100.00;99418.34;4994968;28;20050;-89
2023/10/28 00:55:43;;;;;;;3.75;2.33;;;;;;;9.09;100.00;99417.34;4994462;28;20456;-89
2023/10/28 00:58:09;;;;;;;3.17;2.10;;;;;;;9.09;100.00;99413.03;4995329;28;20080;-89
2023/10/28 01:00:35;;;;;;;2.25;2.05;;;;;;;9.12;100.00;99415.50;4995336;28;20392;-89
2023/10/28 01:03:02;;;;;;;2.47;2.00;;;;;;;9.13;100.00;99411.19;4994176;28;20065;-88
2023/10/28 01:05:29;;;;;;;4.00;2.00;;;;;;;9.09;100.00;99404.41;4995057;28;20057;-89
2023/10/28 01:07:55;;;;;;;6.30;2.25;;;;;;;9.14;100.00;99412.00;4994487;28;20026;-91
2023/10/28 01:10:28;;;;;;;5.00;2.20;;;;;;;9.16;100.00;99416.25;4993919;28;20538;-89
2023/10/28 01:12:54;;;;;;;4.72;2.45;;;;;;;9.16;100.00;99410.22;4994677;28;20029;-88
2023/10/28 01:15:19;;;;;;;3.20;2.10;;;;;;;9.16;100.00;99407.63;4994196;28;20030;-88
2023/10/28 01:17:45;;;;;;;1.90;1.80;;;;;;;9.16;100.00;99408.50;4994760;28;20118;-88
2023/10/28 01:20:11;;;;;;;2.60;1.90;;;;;;;9.17;100.00;99405.03;4994811;28;20474;-88
2023/10/28 01:22:36;;;;;;;3.40;1.90;;;;;;;9.20;100.00;99404.91;4995119;28;20026;-89
2023/10/28 01:25:02;;;;;;;3.60;2.10;;;;;;;9.18;100.00;99411.03;4994688;28;20444;-90
2023/10/28 01:27:28;;;;;;;2.27;1.87;;;;;;;9.19;100.00;99399.78;4994691;28;20364;-89
2023/10/28 01:29:56;;;;;;;3.97;2.10;;;;;;;9.14;100.00;99399.06;4994578;28;20030;-89
2023/10/28 01:32:21;;;;;;;3.05;1.83;;;;;;;9.12;100.00;99387.03;4994921;28;20026;-90
2023/10/28 01:34:50;;;;;;;4.73;2.03;;;;;;;9.23;100.00;99402.22;4994814;28;20541;-88
2023/10/28 01:37:19;;;;;;;2.90;1.83;;;;;;;9.25;100.00;99409.91;4995754;28;20023;-89
2023/10/28 01:39:50;;;;;;;4.60;1.80;;;;;;;9.24;100.00;99403.03;4994270;28;20124;-90
2023/10/28 01:42:16;;;;;;;2.08;1.70;;;;;;;9.25;100.00;99405.59;4994428;28;20027;-89
2023/10/28 01:44:41;;;;;;;3.60;1.70;;;;;;;9.25;100.00;99408.19;4993839;28;20031;-88
2023/10/28 01:47:08;;;;;;;2.63;1.70;;;;;;;9.27;100.00;99409.00;4994462;28;20069;-88
2023/10/28 01:49:34;;;;;;;4.78;2.08;;;;;;;9.28;100.00;99415.00;4994097;28;20034;-89
2023/10/28 01:52:00;;;;;;;2.95;1.80;;;;;;;9.29;100.00;99413.28;4994110;28;20027;-89
2023/10/28 01:54:25;;;;;;;3.10;1.77;;;;;;;9.28;100.00;99415.00;4994049;28;20052;-89
2023/10/28 01:56:50;;;;;;;3.70;1.90;;;;;;;9.26;100.00;99409.03;4994391;28;20026;-89
2023/10/28 01:59:16;;;;;;;1.97;1.63;;;;;;;9.30;100.00;99413.22;4994279;28;20421;-89
2023/10/28 02:01:42;;;;;;;1.77;1.60;;;;;;;9.25;100.00;99400.44;4994388;28;20122;-87
2023/10/28 02:04:08;;;;;;;2.33;1.70;;;;;;;9.22;100.00;99394.50;4994530;28;20031;-89
2023/10/28 02:06:33;;;;;;;2.97;1.90;;;;;;;9.22;100.00;99394.50;4994174;28;20106;-88
2023/10/28 02:08:58;;;;;;;3.90;1.80;;;;;;;9.26;100.00;99399.53;4994166;28;20026;-88
2023/10/28 02:11:24;;;;;;;4.03;2.00;;;;;;;9.31;100.00;99404.56;4994435;28;20018;-88
2023/10/28 02:13:49;;;;;;;1.90;1.60;;;;;;;9.26;100.00;99394.34;4993883;28;20030;-88
2023/10/28 02:16:15;;;;;;;2.07;1.77;;;;;;;9.28;100.00;99394.28;4994172;28;20050;-89
2023/10/28 02:18:40;;;;;;;2.13;1.60;;;;;;;9.31;100.00;99404.56;4993673;28;20034;-88
2023/10/28 02:21:06;;;;;;;3.70;1.57;;;;;;;9.28;100.00;99404.66;4993775;28;20378;-88
2023/10/28 02:23:31;;;;;;;2.30;1.43;;;;;;;9.22;100.00;99389.34;4996846;28;20064;-89
2023/10/28 02:25:56;;;;;;;2.47;1.60;;;;;;;9.26;100.00;99406.44;4997662;28;20037;-89
2023/10/28 02:28:21;;;;;;;2.73;1.50;;;;;;;9.24;100.00;99406.50;4998129;28;20019;-89
2023/10/28 02:30:47;;;;;;;1.93;1.30;;;;;;;9.24;100.00;99409.09;4998127;28;20037;-88
2023/10/28 02:33:12;;;;;;;1.53;1.27;;;;;;;9.17;100.00;99392.06;4997502;28;20455;-89
2023/10/28 02:35:37;;;;;;;2.27;1.60;;;;;;;9.15;100.00;99393.00;4997565;28;20026;-89
2023/10/28 02:38:03;;;;;;;1.93;1.43;;;;;;;9.22;100.00;99403.09;4997187;28;20022;-89
2023/10/28 02:40:28;;;;;;;2.00;1.10;;;;;;;9.16;100.00;99395.56;4997969;28;20037;-89
2023/10/28 02:42:53;;;;;;;1.27;1.17;;;;;;;9.23;100.00;99401.38;4997705;28;20113;-89
2023/10/28 02:45:19;;;;;;;1.37;1.13;;;;;;;9.24;100.00;99405.63;4997938;28;20033;-90
2023/10/28 02:47:44;;;;;;;1.20;1.10;;;;;;;9.25;100.00;99409.91;4997475;28;20075;-92
2023/10/28 02:50:10;;;;;;;1.67;1.30;;;;;;;9.20;100.00;99404.06;4997263;28;20037;-89
2023/10/28 02:52:35;;;;;;;1.38;1.13;;;;;;;9.16;100.00;99400.72;4997967;28;20094;-90
2023/10/28 02:55:01;;;;;;;2.20;1.30;;;;;;;9.21;100.00;99411.78;4996854;28;20547;-89
2023/10/28 02:57:26;;;;;;;1.57;1.33;;;;;;;9.17;100.00;99410.19;4997268;28;20038;-90
2023/10/28 02:59:51;;;;;;;1.20;1.10;;;;;;;9.20;100.00;99412.66;4997332;28;20498;-89
2023/10/28 03:02:17;;;;;;;1.37;1.23;;;;;;;9.19;100.00;99410.97;4997438;28;20030;-90
2023/10/28 03:04:42;;;;;;;2.30;1.20;;;;;;;9.19;100.00;99415.31;4996980;28;20126;-90
2023/10/28 03:07:08;;;;;;;3.53;1.33;;;;;;;9.14;100.00;99412.00;5004465;28;20065;-90
2023/10/28 03:09:33;;;;;;;1.77;1.27;;;;;;;9.15;100.00;99421.47;4998054;28;20025;-89
2023/10/28 03:11:58;;;;;;;2.83;1.40;;;;;;;9.16;100.00;99424.03;4997063;28;20353;-89
2023/10/28 03:14:24;;;;;;;1.50;1.40;;;;;;;9.09;100.00;99415.63;4997261;28;20042;-90
2023/10/28 03:16:49;;;;;;;1.53;1.33;;;;;;;9.15;100.00;99419.75;4997376;28;20041;-90
2023/10/28 03:19:14;;;;;;;2.23;1.60;;;;;;;9.09;100.00;99407.84;4997190;28;20022;-89
2023/10/28 03:21:39;;;;;;;2.00;1.50;;;;;;;9.14;100.00;99415.47;4996999;28;20026;-89
2023/10/28 03:24:06;;;;;;;2.47;1.53;;;;;;;9.12;100.00;99415.50;4996971;28;20026;-90
2023/10/28 03:26:32;;;;;;;1.40;1.30;;;;;;;9.11;100.00;99411.25;4997307;28;20505;-89
2023/10/28 03:28:59;;;;;;;1.40;1.30;;;;;;;9.01;100.00;99398.63;4996916;28;20026;-89
2023/10/28 03:31:26;;;;;;;1.10;1.00;;;;;;;9.04;100.00;99412.31;4996578;28;20018;-90
2023/10/28 03:33:51;;;;;;;1.40;1.30;;;;;;;8.94;100.00;99406.59;4995509;28;20018;-89
2023/10/28 03:36:16;;;;;;;2.57;1.90;;;;;;;8.91;100.00;99408.41;4996617;28;20026;-89
2023/10/28 03:38:42;;;;;;;2.00;1.80;;;;;;;8.91;100.00;99414.47;4996504;28;20023;-89
2023/10/28 03:41:08;;;;;;;2.80;1.70;;;;;;;8.91;100.00;99422.22;4996657;28;20048;-90
2023/10/28 03:43:34;;;;;;;1.60;1.50;;;;;;;8.90;100.00;99424.84;4996639;28;20069;-89
2023/10/28 03:45:59;;;;;;;1.90;1.57;;;;;;;8.87;100.00;99422.34;4996718;28;20022;-90
2023/10/28 03:48:24;;;;;;;3.43;1.47;;;;;;;8.87;100.00;99415.44;4996893;28;20026;-90
2023/10/28 03:51:05;;;;;;;1.30;1.20;;;;;;;8.86;100.00;99416.31;4996642;28;20057;-90
2023/10/28 03:53:31;;;;;;;1.67;1.40;;;;;;;8.88;100.00;99417.13;5000254;28;20109;-90
2023/10/28 03:55:56;;;;;;;1.93;1.50;;;;;;;8.91;100.00;99409.28;4996691;28;20027;-91
2023/10/28 03:58:22;;;;;;;1.73;1.47;;;;;;;8.91;100.00;99413.59;4996573;28;20026;-91
2023/10/28 04:00:55;;;;;;;2.40;1.40;;;;;;;8.92;100.00;99418.75;4996703;28;20026;-89
2023/10/28 04:03:23;;;;;;;2.40;1.88;;;;;;;8.89;100.00;99415.41;5016340;28;20378;-90
2023/10/28 04:05:50;;;;;;;1.70;1.60;;;;;;;8.89;100.00;99418.00;5015555;28;20088;-91
2023/10/28 04:08:15;;;;;;;1.80;1.65;;;;;;;8.90;100.00;99410.16;5016196;28;20026;-89
2023/10/28 04:10:41;;;;;;;2.70;1.80;;;;;;;8.89;100.00;99408.47;5019971;28;20029;-89
2023/10/28 04:13:06;;;;;;;2.37;1.67;;;;;;;8.93;100.00;99411.81;5020046;28;20045;-89
2023/10/28 04:15:31;;;;;;;1.67;1.50;;;;;;;8.92;100.00;99410.09;5019467;28;20026;-89
2023/10/28 04:17:57;;;;;;;1.40;1.30;;;;;;;8.87;100.00;99396.50;5016667;28;20466;-90
2023/10/28 04:20:23;;;;;;;3.08;2.00;;;;;;;8.98;100.00;99397.00;5015247;28;20030;-90
2023/10/28 04:22:49;;;;;;;3.93;1.70;;;;;;;8.97;100.00;99405.66;5015259;28;20135;-90
2023/10/28 04:25:14;;;;;;;1.63;1.52;;;;;;;8.98;100.00;99398.72;5015329;28;20033;-90
2023/10/28 04:27:40;;;;;;;2.60;1.17;;;;;;;8.99;100.00;99401.28;5015281;28;20474;-90
2023/10/28 04:30:07;;;;;;;1.30;1.20;;;;;;;9.01;100.00;99396.88;5015865;28;20115;-90
2023/10/28 04:32:32;;;;;;;;;;;;;;;9.00;100.00;99395.22;5001025;28;20045;-90
2023/10/28 04:34:57;;;;;;;1.20;1.10;;;;;;;9.01;100.00;99389.13;4995754;28;20326;-90
2023/10/28 04:37:24;;;;;;;1.17;1.17;;;;;;;9.01;100.00;99381.34;4996069;28;20026;-91
2023/10/28 04:39:51;;;;;;;1.58;1.48;;;;;;;9.01;100.00;99398.63;4995758;28;20042;-90
2023/10/28 04:42:16;;;;;;;2.67;1.60;;;;;;;8.99;100.00;99390.94;4995526;28;20042;-90
2023/10/28 04:44:43;;;;;;;2.10;1.80;;;;;;;9.00;100.00;99390.03;4995110;28;20037;-90
2023/10/28 04:47:08;;;;;;;;;;;;;;;9.03;100.00;99392.50;4996190;28;20041;-90
2023/10/28 04:49:33;;;;;;;2.13;1.60;;;;;;;9.00;100.00;99382.28;4995932;28;19913;-90
2023/10/28 04:51:59;;;;;;;1.87;1.50;;;;;;;9.04;100.00;99391.59;4995359;28;20030;-90
2023/10/28 04:54:24;;;;;;;1.47;1.37;;;;;;;9.02;100.00;99383.03;5005116;28;20434;-89
2023/10/28 04:56:49;;;;;;;1.50;1.40;;;;;;;9.07;100.00;99388.94;4995936;28;20030;-90
2023/10/28 04:59:15;;;;;;;1.53;1.43;;;;;;;9.06;100.00;99387.22;4995530;28;20092;-90
2023/10/28 05:01:41;;;;;;;1.40;1.30;;;;;;;9.05;100.00;99376.94;4994840;28;20023;-89
2023/10/28 05:04:08;;;;;;;1.50;1.40;;;;;;;9.03;100.00;99378.72;4995399;28;20165;-90
2023/10/28 05:06:33;;;;;;;1.45;1.35;;;;;;;9.02;100.00;99369.28;4995442;28;20035;-90
2023/10/28 05:08:59;;;;;;;1.23;1.13;;;;;;;9.02;100.00;99372.69;4995111;28;20026;-90
2023/10/28 05:11:25;;;;;;;1.70;1.40;;;;;;;9.10;100.00;99378.50;5003975;28;20026;-89
2023/10/28 05:13:50;;;;;;;4.22;1.52;;;;;;;9.08;100.00;99380.28;4997061;28;20042;-90
2023/10/28 05:16:18;;;;;;;2.63;1.40;;;;;;;9.04;100.00;99360.56;4995885;28;20065;-89
2023/10/28 05:18:43;;;;;;;3.35;1.60;;;;;;;9.05;100.00;99370.00;4995770;28;20019;-89
2023/10/28 05:21:10;;;;;;;3.03;1.50;;;;;;;9.09;100.00;99373.34;4995253;28;20118;-91
2023/10/28 05:23:35;;;;;;;1.20;1.10;;;;;;;9.10;100.00;99375.91;4994735;28;20026;-90
2023/10/28 05:26:01;;;;;;;2.50;1.50;;;;;;;9.10;100.00;99372.44;4994578;28;20029;-91
2023/10/28 05:28:26;;;;;;;1.23;1.13;;;;;;;9.08;100.00;99376.81;4995012;28;20101;-90
2023/10/28 05:30:51;;;;;;;1.93;1.63;;;;;;;9.11;100.00;99371.56;4994446;28;20464;-90
2023/10/28 05:33:17;;;;;;;1.50;1.27;;;;;;;9.11;100.00;99369.81;4995240;28;20050;-89
2023/10/28 05:35:42;;;;;;;2.20;1.40;;;;;;;9.14;100.00;99375.78;4994740;28;20022;-91
2023/10/28 05:38:10;;;;;;;1.47;1.43;;;;;;;9.25;100.00;99378.84;4994618;28;20057;-91
2023/10/28 05:40:39;;;;;;;2.88;1.60;;;;;;;9.11;100.00;99371.56;4994632;28;20038;-89
2023/10/28 05:43:04;;;;;;;1.48;1.38;;;;;;;9.14;100.00;99378.38;4994563;28;20038;-90
2023/10/28 05:45:29;;;;;;;1.40;1.30;;;;;;;9.13;100.00;99377.53;4994939;28;20429;-90
2023/10/28 05:47:55;;;;;;;2.00;1.30;;;;;;;9.12;100.00;99373.25;4994539;28;20461;-89
2023/10/28 05:50:20;;;;;;;1.43;1.20;;;;;;;9.12;100.00;99384.44;4994517;28;20026;-90
2023/10/28 05:52:45;;;;;;;1.40;1.30;;;;;;;9.15;100.00;99387.81;4994311;28;20026;-90
2023/10/28 05:55:12;;;;;;;1.67;1.13;;;;;;;9.10;100.00;99380.22;4994504;28;20034;-90
2023/10/28 05:57:41;;;;;;;2.78;1.67;;;;;;;9.12;100.00;99391.38;4993957;28;20114;-89
2023/10/28 06:00:10;;;;;;;1.50;1.40;;;;;;;9.10;100.00;99390.56;4994666;28;20022;-90
2023/10/28 06:02:39;;;;;;;1.90;1.38;;;;;;;9.15;100.00;99395.59;4994372;28;20077;-89
2023/10/28 06:05:05;;;;;;;1.60;1.30;;;;;;;9.14;100.00;99392.16;4993183;28;20022;-84
2023/10/28 06:07:31;;;;;;;1.45;1.35;;;;;;;9.19;100.00;99407.53;4992382;28;20494;-85
2023/10/28 06:09:56;;;;;;;1.23;1.00;;;;;;;9.18;100.00;99408.44;4992981;28;20106;-84
2023/10/28 06:12:21;;;;;;;1.10;1.10;;;;;;;9.17;100.00;99398.97;4993343;28;20061;-86
2023/10/28 06:14:47;;;;;;;1.40;1.30;;;;;;;9.17;100.00;99406.75;5003033;28;20034;-94
2023/10/28 06:17:16;;;;;;;2.43;1.40;;;;;;;9.16;100.00;99405.06;4995074;28;20035;-92
2023/10/28 06:19:41;;;;;;;1.58;1.45;;;;;;;9.16;100.00;99402.47;4994700;28;20483;-94
2023/10/28 06:22:07;;;;;;;3.17;1.53;;;;;;;9.17;100.00;99404.16;4994423;28;20084;-95
2023/10/28 06:24:32;;;;;;;4.60;1.67;;;;;;;9.15;100.00;99405.94;4993488;28;20073;-89
2023/10/28 06:26:59;;;;;;;4.07;1.70;;;;;;;9.16;100.00;99402.47;4994067;28;20042;-93
2023/10/28 06:29:25;;;;;;;1.88;1.25;;;;;;;9.15;100.00;99411.13;4993756;28;20030;-89
2023/10/28 06:31:51;;;;;;;1.67;1.40;;;;;;;9.22;100.00;99410.03;4993629;28;20034;-90
2023/10/28 06:34:16;;;;;;;1.63;1.50;;;;;;;9.22;100.00;99412.63;4993533;28;20052;-88
2023/10/28 06:36:41;;;;;;;3.10;1.97;;;;;;;9.21;100.00;99416.94;4994184;28;20018;-87
2023/10/28 06:39:08;;;;;;;3.10;1.70;;;;;;;9.22;100.00;99413.47;4993127;28;20038;-88
2023/10/28 06:41:34;;;;;;;2.13;1.67;;;;;;;9.23;100.00;99406.56;4993795;28;20102;-89
2023/10/28 06:44:03;;;;;;;2.00;1.70;;;;;;;9.25;100.00;99413.38;4994891;28;20117;-91
2023/10/28 06:46:28;;;;;;;2.30;1.40;;;;;;;9.24;100.00;99406.50;4996813;28;20117;-89
2023/10/28 06:48:53;;;;;;;3.60;1.67;;;;;;;9.29;100.00;99406.34;4994961;28;20057;-89
2023/10/28 06:51:19;;;;;;;2.63;1.60;;;;;;;9.30;100.00;99404.59;4996017;28;20022;-89
2023/10/28 06:53:44;;;;;;;2.10;1.50;;;;;;;9.31;100.00;99409.72;4995142;28;20045;-89
2023/10/28 06:56:11;;;;;;;2.53;1.50;;;;;;;9.32;100.00;99406.25;4996821;28;20030;-89
2023/10/28 06:58:37;;;;;;;;;;;;;;;9.35;100.00;99408.72;4994323;28;20030;-90
2023/10/28 07:01:04;;;;;;;3.20;1.43;;;;;;;9.27;100.00;99396.06;4993366;28;20351;-88
2023/10/28 07:03:29;;;;;;;2.00;1.40;;;;;;;9.32;100.00;99410.56;4993755;28;20030;-89
2023/10/28 07:05:55;;;;;;;1.60;1.20;;;;;;;9.36;100.00;99414.75;4993306;28;20157;-89
2023/10/28 07:08:20;;;;;;;1.80;1.13;;;;;;;9.37;100.00;99406.09;4993264;28;20058;-89
2023/10/28 07:10:47;;;;;;;1.77;1.30;;;;;;;9.37;100.00;99406.09;4996653;28;20666;-92
2023/10/28 07:13:13;;;;;;;1.10;1.00;;;;;;;9.42;100.00;99415.41;4997591;28;20050;-86
2023/10/28 07:15:40;;;;;;;1.23;1.13;;;;;;;9.43;100.00;99418.81;4995573;28;20493;-83
2023/10/28 07:18:07;;;;;;;1.75;1.00;;;;;;;9.45;100.00;99422.22;4996414;28;20157;-83
2023/10/28 07:20:33;;;;;;;1.58;1.10;;;;;;;9.39;100.00;99412.06;4996117;28;20372;-84
2023/10/28 07:22:59;;;;;;;1.20;1.10;;;;;;;9.48;100.00;99423.84;4995783;28;20026;-81
2023/10/28 07:25:27;;;;;;;2.78;1.23;;;;;;;9.52;100.00;99422.84;4996467;28;20034;-84
2023/10/28 07:27:53;;;;;;;0.90;0.90;;;;;;;9.52;100.00;99417.69;4996368;28;20438;-84
2023/10/28 07:30:18;;;;;;;0.77;0.77;;;;;;;9.57;100.00;99431.31;4995951;28;20026;-84
2023/10/28 07:32:43;;;;;;;1.27;0.90;;;;;;;9.58;100.00;99417.44;4995981;28;20029;-83
2023/10/28 07:35:09;;;;;;;1.23;1.10;;;;;;;9.73;100.00;99422.13;4996286;28;20456;-84
2023/10/28 07:37:34;;;;;;;1.97;1.43;;;;;;;9.65;100.00;99429.31;4995493;28;20023;-84
2023/10/28 07:40:03;;;;;;;1.30;1.17;;;;;;;9.65;100.00;99434.50;4995974;28;20479;-82
2023/10/28 07:42:29;;;;;;;3.88;1.40;;;;;;;9.69;100.00;99430.88;4995246;28;20022;-84
2023/10/28 07:44:54;;;;;;;4.33;1.50;;;;;;;9.71;100.00;99428.25;4996188;28;20117;-86
2023/10/28 07:47:19;;;;;;;2.10;1.30;;;;;;;9.76;100.00;99425.50;4996201;28;20026;-88
2023/10/28 07:49:45;;;;;;;2.60;1.40;;;;;;;9.84;100.00;99433.84;4994965;28;20026;-86
2023/10/28 07:52:10;;;;;;;1.73;1.20;;;;;;;9.88;100.00;99432.84;4995753;28;20030;-86
2023/10/28 07:54:36;;;;;;;1.67;1.30;;;;;;;9.88;100.00;99431.09;4995588;28;20054;-85
2023/10/28 07:57:02;;;;;;;2.43;1.40;;;;;;;9.95;100.00;99436.91;4995139;28;20022;-85
2023/10/28 07:59:27;;;;;;;1.52;1.33;;;;;;;9.99;100.00;99448.00;4995959;28;20041;-87
2023/10/28 08:01:53;;;;;;;2.30;1.10;;;;;;;10.05;100.00;99451.25;4995694;28;20038;-87
2023/10/28 08:04:18;;;;;;;2.37;1.40;;;;;;;10.04;100.00;99440.94;4995279;28;20091;-84
2023/10/28 08:06:43;;;;;;;1.73;1.40;;;;;;;10.13;100.00;99452.72;4995012;28;20384;-84
2023/10/28 08:09:09;;;;;;;1.53;1.23;;;;;;;10.16;100.00;99460.38;4995349;28;20026;-85
2023/10/28 08:11:34;;;;;;;3.83;1.70;;;;;;;10.19;100.00;99455.09;4994994;28;20030;-86
2023/10/28 08:14:03;;;;;;;3.80;1.60;;;;;;;10.24;100.00;99458.38;4995532;28;20471;-86
2023/10/28 08:16:28;;;;;;;4.03;1.90;;;;;;;10.30;100.00;99457.31;4995703;28;20022;-83
2023/10/28 08:18:54;;;;;;;2.57;1.50;;;;;;;10.36;100.00;99457.06;4994387;28;20033;-84
2023/10/28 08:21:20;;;;;;;2.60;1.45;;;;;;;10.45;100.00;99471.50;4994493;28;20027;-86
2023/10/28 08:23:45;;;;;;;2.73;1.43;;;;;;;10.51;100.00;99468.66;4995399;28;20025;-81
2023/10/28 08:26:12;;;;;;;2.40;1.40;;;;;;;10.57;100.00;99465.00;4994802;28;20026;-81
2023/10/28 08:28:40;;;;;;;3.90;1.45;;;;;;;10.58;100.00;99471.88;4995805;28;20081;-93
2023/10/28 08:31:09;;;;;;;2.95;1.40;;;;;;;10.60;100.00;99476.09;4996607;28;20033;-92
2023/10/28 08:33:41;;;;;;;3.75;1.65;;;;;;;10.66;100.00;99472.41;4995654;28;20038;-94
2023/10/28 08:36:07;;;;;;;2.67;1.67;;;;;;;10.64;100.00;99477.69;4996026;28;20022;-91
2023/10/28 08:38:36;;;;;;;4.38;1.70;;;;;;;10.66;100.00;99478.47;4995826;28;20029;-90
2023/10/28 08:41:05;;;;;;;5.93;1.80;;;;;;;10.68;100.00;99478.41;4996207;28;20428;-87
2023/10/28 08:43:34;;;;;;;3.65;1.70;;;;;;;10.65;100.00;99470.72;4996319;28;20022;-78
2023/10/28 08:46:01;;;;;;;2.65;1.70;;;;;;;10.71;100.00;99480.88;4993737;28;20077;-79
2023/10/28 08:48:27;;;;;;;2.33;1.38;;;;;;;10.82;100.00;99489.13;4994967;28;20061;-78
2023/10/28 08:50:56;;;;;;;5.15;1.80;;;;;;;10.89;100.00;99491.47;4993912;28;20031;-86
2023/10/28 08:53:22;;;;;;;3.90;1.50;;;;;;;10.96;100.00;99496.38;4993733;28;20463;-85
2023/10/28 08:55:52;;;;;;;4.33;1.60;;;;;;;11.03;100.00;99498.75;4994171;28;20117;-84
2023/10/28 08:58:19;;;;;;;3.80;1.60;;;;;;;11.03;100.00;99490.94;4997147;28;20046;-84
2023/10/28 09:00:50;;;;;;;3.97;1.70;;;;;;;11.15;100.00;99503.44;4993270;28;20030;-84
2023/10/28 09:03:20;;;;;;;3.33;1.70;;;;;;;11.24;100.00;99503.09;4994552;28;20157;-85
2023/10/28 09:05:47;;;;;;;2.85;1.52;;;;;;;11.31;100.00;99502.84;4994571;28;20053;-84
2023/10/28 09:08:13;;;;;;;5.65;2.13;;;;;;;11.34;100.00;99502.72;4993879;28;20164;-79
2023/10/28 09:10:41;;;;;;;2.13;1.45;;;;;;;11.37;100.00;99510.41;4994753;28;20034;-79
2023/10/28 09:13:07;;;;;;;3.72;1.83;;;;;;;11.42;100.00;99509.31;4968044;28;20054;-79
2023/10/28 09:15:37;;;;;;;2.70;1.67;;;;;;;11.47;100.00;99514.31;4992615;28;20466;-82
2023/10/28 09:18:03;;;;;;;3.75;1.88;;;;;;;11.55;100.00;99514.84;4993656;28;20042;-82
2023/10/28 09:20:46;;;;;;;3.13;1.80;;;;;;;11.62;100.00;99510.25;4992628;28;20038;-83
2023/10/28 09:23:13;;;;;;;2.35;1.70;;;;;;;11.66;100.00;99505.75;4993854;28;20037;-84
2023/10/28 09:25:39;;;;;;;5.97;1.98;;;;;;;11.76;100.00;99509.66;4994375;28;20044;-90
2023/10/28 09:28:14;;;;;;;4.03;1.98;;;;;;;11.85;100.00;99511.88;4993161;28;20064;-81
2023/10/28 09:30:46;;;;;;;6.80;1.90;;;;;;;11.94;100.00;99515.84;4993170;28;20372;-83
2023/10/28 09:33:13;;;;;;;2.30;1.63;;;;;;;11.96;100.00;99511.44;4993195;28;20034;-84
2023/10/28 09:35:40;;;;;;;4.85;1.85;;;;;;;12.02;100.00;99506.00;4991936;28;20148;-85
2023/10/28 09:38:07;;;;;;;4.28;1.90;;;;;;;12.20;100.00;99513.94;4993773;28;20054;-78
2023/10/28 09:40:34;;;;;;;5.38;1.98;;;;;;;12.19;100.00;99497.47;4993879;28;20030;-78
2023/10/28 09:43:02;;;;;;;3.38;1.80;;;;;;;12.28;100.00;99511.84;4993595;28;20034;-92
2023/10/28 09:45:27;;;;;;;4.72;1.80;;;;;;;12.24;100.00;99514.63;4994215;28;20030;-88
2023/10/28 09:47:58;;;;;;;3.03;1.70;;;;;;;12.21;100.00;99510.41;4994147;28;20026;-89
2023/10/28 09:50:27;;;;;;;2.75;1.60;;;;;;;12.20;100.00;99521.72;4993551;28;20023;-89
2023/10/28 09:53:04;;;;;;;4.20;1.55;;;;;;;12.21;100.00;99518.22;4993253;28;20029;-87
2023/10/28 09:55:35;;;;;;;;;;;;;;;12.25;100.00;99524.13;4995163;28;20026;-91
2023/10/28 09:58:38;;;;;;;2.30;1.55;;;;;;;12.38;100.00;99514.03;4994871;28;19920;-96
2023/10/28 10:01:31;;;;;;;3.33;1.52;;;;;;;12.52;100.00;99514.25;4994424;28;20077;-91
2023/10/28 10:04:08;;;;;;;4.55;1.80;;;;;;;12.64;100.00;99510.25;4992320;28;20475;-81
2023/10/28 10:06:36;;;;;;;3.95;1.58;;;;;;;12.80;100.00;99513.88;4993775;28;20057;-79
2023/10/28 10:09:02;;;;;;;4.00;1.70;;;;;;;12.97;100.00;99510.47;4993427;28;20019;-80
2023/10/28 10:11:27;;;;;;;6.03;1.93;;;;;;;13.09;100.00;99509.03;4992614;28;20105;-79
2023/10/28 10:14:10;;;;;;;3.27;1.73;;;;;;;13.21;100.00;99512.00;4992400;28;20481;-78
2023/10/28 10:16:54;;;;;;;5.68;1.95;;;;;;;13.30;100.00;99521.97;4995096;28;20065;-93
2023/10/28 10:19:24;;;;;;;3.88;1.80;;;;;;;13.33;100.00;99527.03;4993960;28;20109;-90
2023/10/28 10:21:53;;;;;;;5.28;1.70;;;;;;;13.37;100.00;99525.13;4993868;28;20030;-81
2023/10/28 10:24:20;;;;;;;3.22;1.50;;;;;;;13.35;100.00;99533.03;4992449;28;20674;-82
2023/10/28 10:27:15;;;;;;;6.95;1.80;;;;;;;13.19;100.00;99521.63;4993267;28;20018;-82
2023/10/28 10:29:41;;;;;;;3.75;1.60;;;;;;;13.24;100.00;99535.28;4996992;28;20058;-82
2023/10/28 10:32:16;;;;;;;5.88;1.70;;;;;;;13.29;100.00;99534.16;4992986;28;20027;-82
2023/10/28 10:34:42;;;;;;;4.03;1.45;;;;;;;13.32;100.00;99535.78;4992710;28;20381;-82
2023/10/28 10:37:09;;;;;;;5.13;1.67;;;;;;;13.28;100.00;99536.84;4993747;28;20098;-83
2023/10/28 10:39:46;;;;;;;3.30;1.35;;;;;;;13.20;100.00;99536.34;4993063;28;20034;-82
2023/10/28 10:42:12;;;;;;;5.63;1.65;;;;;;;13.14;100.00;99532.28;4993388;28;20097;-82
2023/10/28 10:44:38;;;;;;;4.03;1.20;;;;;;;13.11;100.00;99533.25;4996298;28;20449;-84
2023/10/28 10:47:05;;;;;;;2.13;1.30;;;;;;;13.12;100.00;99534.09;4995922;28;20030;-84
2023/10/28 10:49:32;;;;;;;3.05;1.38;;;;;;;13.12;100.00;99534.97;5000662;28;20014;-91
2023/10/28 10:51:59;;;;;;;5.20;1.52;;;;;;;13.06;100.00;99540.44;4998620;28;20418;-96
2023/10/28 10:54:33;;;;;;;3.33;1.55;;;;;;;13.09;100.00;99534.25;4997285;28;20058;-94
2023/10/28 10:56:59;;;;;;;2.75;1.40;;;;;;;13.10;100.00;99531.56;5001037;28;20054;-91
2023/10/28 10:59:28;;;;;;;5.10;1.47;;;;;;;13.06;100.00;99519.59;5002210;28;20033;-96
2023/10/28 11:01:55;;;;;;;2.72;1.20;;;;;;;13.15;100.00;99530.53;5000379;28;20270;-79
2023/10/28 11:04:20;;;;;;;5.00;1.20;;;;;;;13.21;100.00;99532.81;5012461;28;20023;-96
2023/10/28 11:06:45;;;;;;;5.57;1.33;;;;;;;13.32;100.00;99537.53;5017581;28;20046;-95
2023/10/28 11:09:15;;;;;;;6.23;1.60;;;;;;;13.39;99.50;99529.41;5005080;28;20034;-96
2023/10/28 11:11:40;;;;;;;4.47;1.48;;;;;;;13.51;100.00;99524.50;5001055;28;20030;-96
2023/10/28 11:14:06;;;;;;;2.47;1.27;;;;;;;13.63;100.00;99523.88;4999007;28;20038;-95
2023/10/28 11:16:33;;;;;;;1.83;1.20;;;;;;;13.66;100.00;99518.53;4998482;28;20056;-94
2023/10/28 11:19:02;;;;;;;4.13;1.63;;;;;;;13.73;100.00;99519.94;4998521;28;20030;-95
2023/10/28 11:21:29;;;;;;;2.17;1.40;;;;;;;13.80;100.00;99520.44;4996896;28;20037;-96
2023/10/28 11:24:03;;;;;;;1.83;1.40;;;;;;;13.79;100.00;99523.97;4996866;28;20049;-96
2023/10/28 11:26:36;;;;;;;2.03;1.20;;;;;;;13.71;100.00;99519.16;4998161;28;20034;-95
2023/10/28 11:29:02;;;;;;;2.83;1.38;;;;;;;13.69;98.33;99528.81;4997031;28;20379;-94
2023/10/28 11:31:31;;;;;;;10.70;2.20;;;;;;;13.58;92.53;99531.09;4999691;28;20030;-85